This is the latest recevied weather packets stored in our database for station/object HP1COO-13. If no packets are shown the sender has not sent any weather packets the latest 10 day(s).
| Time | Temp. | Humidity | Pressure | Rain* | Wind** | Luminosity | Snow |
|---|---|---|---|---|---|---|---|
| 1777669365 | 30.56° C | 79% | 1003.6 hPa | 0 mm | - | - | - |
| 1777668732 | 30.56° C | 81% | 1003.7 hPa | 0 mm | - | - | - |
| 1777667466 | 30.56° C | 79% | 1003.5 hPa | 0 mm | - | - | - |
| 1777666833 | 30.56° C | 80% | 1003.9 hPa | 0 mm | - | - | - |
| 1777666200 | 30.56° C | 78% | 1004.1 hPa | 0 mm | - | - | - |
| 1777665567 | 31.11° C | 77% | 1004 hPa | 0 mm | - | - | - |
| 1777664934 | 31.67° C | 74% | 1003.9 hPa | 0 mm | - | - | - |
| 1777664301 | 32.22° C | 74% | 1004.1 hPa | 0 mm | - | - | - |
| 1777663668 | 31.67° C | 76% | 1004.5 hPa | 0 mm | - | - | - |
| 1777663035 | 30.56° C | 80% | 1005 hPa | 0.25 mm | - | - | - |
| 1777662402 | 30.56° C | 85% | 1005.4 hPa | 1.27 mm | - | - | - |
| 1777661802 | 30° C | 86% | 1005.3 hPa | 1.27 mm | - | - | - |
| 1777661769 | 30° C | 86% | 1005.3 hPa | 1.27 mm | - | - | - |
| 1777661136 | 29.44° C | 86% | 1005.3 hPa | 1.27 mm | - | - | - |
| 1777660503 | 28.89° C | 90% | 1004.7 hPa | 1.27 mm | - | - | - |
| 1777659870 | 28.89° C | 88% | 1005.4 hPa | 1.02 mm | - | - | - |
| 1777659237 | 30.56° C | 83% | 1005.9 hPa | 0 mm | - | - | - |
| 1777658604 | 32.78° C | 70% | 1006 hPa | 0 mm | - | - | - |
| 1777657338 | 32.78° C | 70% | 1006.2 hPa | 0 mm | - | - | - |
| 1777656705 | 32.78° C | 69% | 1006 hPa | 0 mm | - | - | - |
| 1777655439 | 31.67° C | 73% | 1006.9 hPa | 0 mm | - | - | - |
| 1777654806 | 32.78° C | 71% | 1006.9 hPa | 0 mm | - | - | - |
| 1777654173 | 32.22° C | 71% | 1006.9 hPa | 0 mm | - | - | - |
| 1777653540 | 32.78° C | 69% | 1007.2 hPa | 0 mm | - | - | - |
| 1777652907 | 32.22° C | 72% | 1007 hPa | 0 mm | - | - | - |
* Rain latest hour (hover to see other rain measurements)
** Current wind speed in m/s (hover to see current wind gust speed)